sensor_id;sensor_type;location;lat;lon;timestamp;P1;durP1;ratioP1;P2;durP2;ratioP2
46505;SDS011;32220;49.808;9.968;2024-03-02T00:00:51;14.07;;;8.63;;
46505;SDS011;32220;49.808;9.968;2024-03-02T00:03:19;12.87;;;9.17;;
46505;SDS011;32220;49.808;9.968;2024-03-02T00:05:50;13.33;;;8.90;;
46505;SDS011;32220;49.808;9.968;2024-03-02T00:08:21;12.63;;;8.87;;
46505;SDS011;32220;49.808;9.968;2024-03-02T00:10:51;14.63;;;8.97;;
46505;SDS011;32220;49.808;9.968;2024-03-02T00:13:20;12.43;;;9.33;;
46505;SDS011;32220;49.808;9.968;2024-03-02T00:15:52;15.43;;;10.07;;
46505;SDS011;32220;49.808;9.968;2024-03-02T00:18:26;13.57;;;9.20;;
46505;SDS011;32220;49.808;9.968;2024-03-02T00:20:57;13.70;;;9.63;;
46505;SDS011;32220;49.808;9.968;2024-03-02T00:23:27;14.70;;;9.30;;
46505;SDS011;32220;49.808;9.968;2024-03-02T00:25:56;12.20;;;9.17;;
46505;SDS011;32220;49.808;9.968;2024-03-02T00:28:26;15.63;;;10.17;;
46505;SDS011;32220;49.808;9.968;2024-03-02T00:30:58;16.10;;;10.40;;
46505;SDS011;32220;49.808;9.968;2024-03-02T00:33:30;15.90;;;11.30;;
46505;SDS011;32220;49.808;9.968;2024-03-02T00:35:59;14.17;;;9.00;;
46505;SDS011;32220;49.808;9.968;2024-03-02T00:38:27;13.40;;;9.30;;
46505;SDS011;32220;49.808;9.968;2024-03-02T00:40:56;15.40;;;9.80;;
46505;SDS011;32220;49.808;9.968;2024-03-02T00:43:41;14.47;;;9.80;;
46505;SDS011;32220;49.808;9.968;2024-03-02T00:46:12;11.50;;;7.87;;
46505;SDS011;32220;49.808;9.968;2024-03-02T00:48:44;14.03;;;8.80;;
46505;SDS011;32220;49.808;9.968;2024-03-02T00:51:20;13.33;;;8.87;;
46505;SDS011;32220;49.808;9.968;2024-03-02T00:53:48;13.67;;;8.53;;
46505;SDS011;32220;49.808;9.968;2024-03-02T00:56:16;16.80;;;10.90;;
46505;SDS011;32220;49.808;9.968;2024-03-02T00:58:44;16.77;;;10.27;;
46505;SDS011;32220;49.808;9.968;2024-03-02T01:01:13;17.83;;;11.37;;
46505;SDS011;32220;49.808;9.968;2024-03-02T01:03:42;17.37;;;11.40;;
46505;SDS011;32220;49.808;9.968;2024-03-02T01:06:09;18.93;;;11.90;;
46505;SDS011;32220;49.808;9.968;2024-03-02T01:08:37;16.47;;;11.27;;
46505;SDS011;32220;49.808;9.968;2024-03-02T01:11:05;16.77;;;10.63;;
46505;SDS011;32220;49.808;9.968;2024-03-02T01:13:32;15.03;;;10.07;;
46505;SDS011;32220;49.808;9.968;2024-03-02T01:16:00;17.43;;;11.00;;
46505;SDS011;32220;49.808;9.968;2024-03-02T01:18:31;14.77;;;9.47;;
46505;SDS011;32220;49.808;9.968;2024-03-02T01:20:59;14.43;;;9.67;;
46505;SDS011;32220;49.808;9.968;2024-03-02T01:23:27;12.73;;;8.17;;
46505;SDS011;32220;49.808;9.968;2024-03-02T01:25:54;14.73;;;10.20;;
46505;SDS011;32220;49.808;9.968;2024-03-02T01:28:22;16.23;;;11.10;;
46505;SDS011;32220;49.808;9.968;2024-03-02T01:30:50;14.20;;;9.93;;
46505;SDS011;32220;49.808;9.968;2024-03-02T01:33:17;15.27;;;9.33;;
46505;SDS011;32220;49.808;9.968;2024-03-02T01:35:47;15.77;;;9.43;;
46505;SDS011;32220;49.808;9.968;2024-03-02T01:38:15;13.47;;;9.57;;
46505;SDS011;32220;49.808;9.968;2024-03-02T01:40:43;14.47;;;9.43;;
46505;SDS011;32220;49.808;9.968;2024-03-02T01:43:11;21.53;;;11.63;;
46505;SDS011;32220;49.808;9.968;2024-03-02T01:45:39;12.77;;;9.00;;
46505;SDS011;32220;49.808;9.968;2024-03-02T01:48:06;16.67;;;9.97;;
46505;SDS011;32220;49.808;9.968;2024-03-02T01:50:34;14.43;;;9.17;;
46505;SDS011;32220;49.808;9.968;2024-03-02T01:53:04;16.30;;;10.27;;
46505;SDS011;32220;49.808;9.968;2024-03-02T01:55:31;14.57;;;10.17;;
46505;SDS011;32220;49.808;9.968;2024-03-02T01:58:00;13.77;;;9.70;;
46505;SDS011;32220;49.808;9.968;2024-03-02T02:00:28;15.90;;;10.37;;
46505;SDS011;32220;49.808;9.968;2024-03-02T02:02:56;16.33;;;10.93;;
46505;SDS011;32220;49.808;9.968;2024-03-02T02:05:23;14.03;;;9.93;;
46505;SDS011;32220;49.808;9.968;2024-03-02T02:07:51;13.37;;;8.73;;
46505;SDS011;32220;49.808;9.968;2024-03-02T02:10:20;13.37;;;9.33;;
46505;SDS011;32220;49.808;9.968;2024-03-02T02:12:47;12.80;;;8.30;;
46505;SDS011;32220;49.808;9.968;2024-03-02T02:15:21;13.83;;;8.90;;
46505;SDS011;32220;49.808;9.968;2024-03-02T02:17:49;14.40;;;10.33;;
46505;SDS011;32220;49.808;9.968;2024-03-02T02:20:17;12.87;;;8.50;;
46505;SDS011;32220;49.808;9.968;2024-03-02T02:22:58;12.87;;;8.60;;
46505;SDS011;32220;49.808;9.968;2024-03-02T02:25:27;11.23;;;8.03;;
46505;SDS011;32220;49.808;9.968;2024-03-02T02:27:55;13.70;;;8.57;;
46505;SDS011;32220;49.808;9.968;2024-03-02T02:30:23;10.70;;;7.73;;
46505;SDS011;32220;49.808;9.968;2024-03-02T02:32:52;10.97;;;7.40;;
46505;SDS011;32220;49.808;9.968;2024-03-02T02:35:19;14.00;;;9.03;;
46505;SDS011;32220;49.808;9.968;2024-03-02T02:37:47;11.20;;;7.93;;
46505;SDS011;32220;49.808;9.968;2024-03-02T02:40:18;12.77;;;8.43;;
46505;SDS011;32220;49.808;9.968;2024-03-02T02:42:45;14.80;;;8.90;;
46505;SDS011;32220;49.808;9.968;2024-03-02T02:45:13;12.70;;;8.03;;
46505;SDS011;32220;49.808;9.968;2024-03-02T02:47:41;9.83;;;8.07;;
46505;SDS011;32220;49.808;9.968;2024-03-02T02:50:08;12.23;;;8.67;;
46505;SDS011;32220;49.808;9.968;2024-03-02T02:52:38;11.50;;;8.17;;
46505;SDS011;32220;49.808;9.968;2024-03-02T02:55:07;10.93;;;7.27;;
46505;SDS011;32220;49.808;9.968;2024-03-02T02:57:38;10.83;;;7.83;;
46505;SDS011;32220;49.808;9.968;2024-03-02T03:00:08;14.07;;;8.90;;
46505;SDS011;32220;49.808;9.968;2024-03-02T03:02:40;13.30;;;9.30;;
46505;SDS011;32220;49.808;9.968;2024-03-02T03:05:09;12.50;;;8.07;;
46505;SDS011;32220;49.808;9.968;2024-03-02T03:07:37;14.97;;;9.57;;
46505;SDS011;32220;49.808;9.968;2024-03-02T03:10:06;11.53;;;8.60;;
46505;SDS011;32220;49.808;9.968;2024-03-02T03:12:34;14.83;;;9.33;;
46505;SDS011;32220;49.808;9.968;2024-03-02T03:15:05;11.63;;;8.20;;
46505;SDS011;32220;49.808;9.968;2024-03-02T03:17:34;12.67;;;8.30;;
46505;SDS011;32220;49.808;9.968;2024-03-02T03:20:03;11.10;;;8.03;;
46505;SDS011;32220;49.808;9.968;2024-03-02T03:22:35;11.70;;;8.13;;
46505;SDS011;32220;49.808;9.968;2024-03-02T03:25:03;12.40;;;8.03;;
46505;SDS011;32220;49.808;9.968;2024-03-02T03:27:31;13.17;;;9.07;;
46505;SDS011;32220;49.808;9.968;2024-03-02T03:29:58;12.30;;;8.10;;
46505;SDS011;32220;49.808;9.968;2024-03-02T03:32:27;10.43;;;7.33;;
46505;SDS011;32220;49.808;9.968;2024-03-02T03:34:55;13.97;;;10.13;;
46505;SDS011;32220;49.808;9.968;2024-03-02T03:37:22;11.83;;;8.43;;
46505;SDS011;32220;49.808;9.968;2024-03-02T03:39:51;11.63;;;8.03;;
46505;SDS011;32220;49.808;9.968;2024-03-02T03:42:19;12.03;;;8.33;;
46505;SDS011;32220;49.808;9.968;2024-03-02T03:44:46;12.27;;;8.33;;
46505;SDS011;32220;49.808;9.968;2024-03-02T03:47:14;10.07;;;7.47;;
46505;SDS011;32220;49.808;9.968;2024-03-02T03:49:43;13.37;;;9.03;;
46505;SDS011;32220;49.808;9.968;2024-03-02T03:52:10;13.30;;;9.13;;
46505;SDS011;32220;49.808;9.968;2024-03-02T03:54:38;13.23;;;9.10;;
46505;SDS011;32220;49.808;9.968;2024-03-02T03:57:05;11.77;;;8.67;;
46505;SDS011;32220;49.808;9.968;2024-03-02T03:59:32;13.57;;;9.30;;
46505;SDS011;32220;49.808;9.968;2024-03-02T04:02:00;14.10;;;9.73;;
46505;SDS011;32220;49.808;9.968;2024-03-02T04:04:28;11.63;;;8.30;;
46505;SDS011;32220;49.808;9.968;2024-03-02T04:06:57;11.20;;;7.80;;
46505;SDS011;32220;49.808;9.968;2024-03-02T04:09:24;12.13;;;8.60;;
46505;SDS011;32220;49.808;9.968;2024-03-02T04:11:53;13.33;;;9.10;;
46505;SDS011;32220;49.808;9.968;2024-03-02T04:14:20;12.77;;;8.90;;
46505;SDS011;32220;49.808;9.968;2024-03-02T04:16:48;13.60;;;8.97;;
46505;SDS011;32220;49.808;9.968;2024-03-02T04:19:15;11.90;;;8.17;;
46505;SDS011;32220;49.808;9.968;2024-03-02T04:21:43;11.07;;;7.77;;
46505;SDS011;32220;49.808;9.968;2024-03-02T04:24:12;13.73;;;8.87;;
46505;SDS011;32220;49.808;9.968;2024-03-02T07:48:06;18.00;;;11.63;;
46505;SDS011;32220;49.808;9.968;2024-03-02T07:50:34;17.30;;;11.00;;
46505;SDS011;32220;49.808;9.968;2024-03-02T07:53:03;13.47;;;9.80;;
46505;SDS011;32220;49.808;9.968;2024-03-02T07:55:31;15.57;;;10.17;;
46505;SDS011;32220;49.808;9.968;2024-03-02T07:57:58;16.13;;;11.43;;
46505;SDS011;32220;49.808;9.968;2024-03-02T08:00:27;15.50;;;10.67;;
46505;SDS011;32220;49.808;9.968;2024-03-02T08:02:54;12.93;;;9.50;;
46505;SDS011;32220;49.808;9.968;2024-03-02T08:05:24;12.70;;;9.70;;
46505;SDS011;32220;49.808;9.968;2024-03-02T08:07:53;13.90;;;9.90;;
46505;SDS011;32220;49.808;9.968;2024-03-02T08:10:20;13.80;;;10.10;;
46505;SDS011;32220;49.808;9.968;2024-03-02T08:12:48;12.37;;;9.87;;
46505;SDS011;32220;49.808;9.968;2024-03-02T08:15:15;15.07;;;9.70;;
46505;SDS011;32220;49.808;9.968;2024-03-02T08:17:43;13.37;;;9.93;;
46505;SDS011;32220;49.808;9.968;2024-03-02T08:20:14;15.27;;;10.60;;
46505;SDS011;32220;49.808;9.968;2024-03-02T08:22:44;12.00;;;9.07;;
46505;SDS011;32220;49.808;9.968;2024-03-02T08:25:13;12.67;;;9.53;;
46505;SDS011;32220;49.808;9.968;2024-03-02T08:27:41;11.87;;;8.73;;
46505;SDS011;32220;49.808;9.968;2024-03-02T08:30:10;11.20;;;9.00;;
46505;SDS011;32220;49.808;9.968;2024-03-02T08:32:38;10.93;;;8.80;;
46505;SDS011;32220;49.808;9.968;2024-03-02T08:35:06;11.10;;;9.10;;
46505;SDS011;32220;49.808;9.968;2024-03-02T08:37:34;13.00;;;9.97;;
46505;SDS011;32220;49.808;9.968;2024-03-02T08:40:03;10.67;;;8.77;;
46505;SDS011;32220;49.808;9.968;2024-03-02T08:42:33;10.33;;;8.57;;
46505;SDS011;32220;49.808;9.968;2024-03-02T08:45:00;10.00;;;7.90;;
46505;SDS011;32220;49.808;9.968;2024-03-02T08:47:28;10.47;;;8.50;;
46505;SDS011;32220;49.808;9.968;2024-03-02T08:49:55;11.27;;;8.67;;
46505;SDS011;32220;49.808;9.968;2024-03-02T08:52:23;10.60;;;8.43;;
46505;SDS011;32220;49.808;9.968;2024-03-02T08:54:51;9.73;;;8.07;;
46505;SDS011;32220;49.808;9.968;2024-03-02T08:57:19;11.30;;;8.97;;
46505;SDS011;32220;49.808;9.968;2024-03-02T08:59:47;11.87;;;8.37;;
46505;SDS011;32220;49.808;9.968;2024-03-02T09:02:14;10.63;;;8.67;;
46505;SDS011;32220;49.808;9.968;2024-03-02T09:04:42;11.37;;;9.23;;
46505;SDS011;32220;49.808;9.968;2024-03-02T09:07:10;9.67;;;8.57;;
46505;SDS011;32220;49.808;9.968;2024-03-02T09:09:37;9.93;;;8.13;;
46505;SDS011;32220;49.808;9.968;2024-03-02T09:12:05;10.40;;;8.23;;
46505;SDS011;32220;49.808;9.968;2024-03-02T09:14:35;9.43;;;7.73;;
46505;SDS011;32220;49.808;9.968;2024-03-02T09:17:03;9.90;;;8.20;;
46505;SDS011;32220;49.808;9.968;2024-03-02T09:19:31;8.73;;;7.70;;
46505;SDS011;32220;49.808;9.968;2024-03-02T09:21:58;10.27;;;7.63;;
46505;SDS011;32220;49.808;9.968;2024-03-02T09:24:28;9.13;;;7.97;;
46505;SDS011;32220;49.808;9.968;2024-03-02T09:26:56;9.10;;;7.80;;
46505;SDS011;32220;49.808;9.968;2024-03-02T09:29:23;9.53;;;7.60;;
46505;SDS011;32220;49.808;9.968;2024-03-02T09:31:53;10.07;;;8.00;;
46505;SDS011;32220;49.808;9.968;2024-03-02T09:34:20;10.27;;;8.30;;
46505;SDS011;32220;49.808;9.968;2024-03-02T09:36:48;10.03;;;8.27;;
46505;SDS011;32220;49.808;9.968;2024-03-02T09:39:17;10.17;;;7.97;;
46505;SDS011;32220;49.808;9.968;2024-03-02T09:41:45;9.03;;;7.03;;
46505;SDS011;32220;49.808;9.968;2024-03-02T09:44:12;8.23;;;7.00;;
46505;SDS011;32220;49.808;9.968;2024-03-02T09:46:40;8.63;;;7.30;;
46505;SDS011;32220;49.808;9.968;2024-03-02T09:49:11;8.50;;;7.40;;
46505;SDS011;32220;49.808;9.968;2024-03-02T09:51:39;9.47;;;8.07;;
46505;SDS011;32220;49.808;9.968;2024-03-02T09:54:07;9.37;;;8.10;;
46505;SDS011;32220;49.808;9.968;2024-03-02T09:56:35;9.80;;;8.27;;
46505;SDS011;32220;49.808;9.968;2024-03-02T09:59:02;9.53;;;8.13;;
46505;SDS011;32220;49.808;9.968;2024-03-02T10:01:30;9.17;;;8.17;;
46505;SDS011;32220;49.808;9.968;2024-03-02T10:03:58;11.63;;;8.07;;
46505;SDS011;32220;49.808;9.968;2024-03-02T10:06:28;9.63;;;7.80;;
46505;SDS011;32220;49.808;9.968;2024-03-02T10:08:55;9.73;;;7.43;;
46505;SDS011;32220;49.808;9.968;2024-03-02T10:11:27;8.67;;;7.77;;
46505;SDS011;32220;49.808;9.968;2024-03-02T10:14:06;9.53;;;8.03;;
46505;SDS011;32220;49.808;9.968;2024-03-02T10:16:35;8.20;;;7.40;;
46505;SDS011;32220;49.808;9.968;2024-03-02T10:19:16;7.73;;;6.93;;
46505;SDS011;32220;49.808;9.968;2024-03-02T10:21:46;8.30;;;7.38;;
46505;SDS011;32220;49.808;9.968;2024-03-02T10:24:15;7.32;;;6.47;;
46505;SDS011;32220;49.808;9.968;2024-03-02T10:26:42;6.28;;;5.68;;
46505;SDS011;32220;49.808;9.968;2024-03-02T10:29:10;7.28;;;6.47;;
46505;SDS011;32220;49.808;9.968;2024-03-02T10:31:38;6.68;;;6.10;;
46505;SDS011;32220;49.808;9.968;2024-03-02T10:34:06;5.97;;;5.40;;
46505;SDS011;32220;49.808;9.968;2024-03-02T10:36:34;6.43;;;5.85;;
46505;SDS011;32220;49.808;9.968;2024-03-02T10:39:04;6.75;;;6.15;;
46505;SDS011;32220;49.808;9.968;2024-03-02T10:41:33;6.93;;;5.78;;
46505;SDS011;32220;49.808;9.968;2024-03-02T10:44:01;6.38;;;5.85;;
46505;SDS011;32220;49.808;9.968;2024-03-02T10:46:30;6.95;;;6.35;;
46505;SDS011;32220;49.808;9.968;2024-03-02T10:48:58;6.38;;;5.75;;
46505;SDS011;32220;49.808;9.968;2024-03-02T10:51:27;6.57;;;6.03;;
46505;SDS011;32220;49.808;9.968;2024-03-02T10:53:57;6.35;;;5.75;;
46505;SDS011;32220;49.808;9.968;2024-03-02T10:56:29;6.55;;;5.95;;
46505;SDS011;32220;49.808;9.968;2024-03-02T10:59:01;6.25;;;5.70;;
46505;SDS011;32220;49.808;9.968;2024-03-02T11:01:31;7.00;;;6.30;;
46505;SDS011;32220;49.808;9.968;2024-03-02T11:03:59;5.72;;;5.18;;
46505;SDS011;32220;49.808;9.968;2024-03-02T11:06:29;6.55;;;5.95;;
46505;SDS011;32220;49.808;9.968;2024-03-02T11:09:00;6.30;;;5.80;;
46505;SDS011;32220;49.808;9.968;2024-03-02T11:11:36;6.40;;;5.80;;
46505;SDS011;32220;49.808;9.968;2024-03-02T11:14:11;7.00;;;6.40;;
46505;SDS011;32220;49.808;9.968;2024-03-02T11:16:43;5.97;;;5.37;;
46505;SDS011;32220;49.808;9.968;2024-03-02T11:19:12;6.27;;;5.67;;
46505;SDS011;32220;49.808;9.968;2024-03-02T11:21:40;5.45;;;4.95;;
46505;SDS011;32220;49.808;9.968;2024-03-02T11:27:04;5.28;;;4.78;;
46505;SDS011;32220;49.808;9.968;2024-03-02T11:29:42;4.95;;;4.55;;
46505;SDS011;32220;49.808;9.968;2024-03-02T11:32:14;4.78;;;4.38;;
46505;SDS011;32220;49.808;9.968;2024-03-02T11:34:44;5.20;;;4.80;;
46505;SDS011;32220;49.808;9.968;2024-03-02T11:37:13;5.13;;;4.55;;
46505;SDS011;32220;49.808;9.968;2024-03-02T11:39:43;4.88;;;4.47;;
46505;SDS011;32220;49.808;9.968;2024-03-02T11:42:13;4.43;;;4.03;;
46505;SDS011;32220;49.808;9.968;2024-03-02T11:44:42;5.10;;;4.70;;
46505;SDS011;32220;49.808;9.968;2024-03-02T11:47:12;5.00;;;4.60;;
46505;SDS011;32220;49.808;9.968;2024-03-02T11:49:44;4.93;;;4.45;;
46505;SDS011;32220;49.808;9.968;2024-03-02T11:52:13;4.15;;;3.75;;
46505;SDS011;32220;49.808;9.968;2024-03-02T11:54:43;3.97;;;3.65;;
46505;SDS011;32220;49.808;9.968;2024-03-02T11:57:16;3.80;;;3.50;;
46505;SDS011;32220;49.808;9.968;2024-03-02T11:59:45;3.60;;;3.30;;
46505;SDS011;32220;49.808;9.968;2024-03-02T12:02:14;3.92;;;3.55;;
46505;SDS011;32220;49.808;9.968;2024-03-02T12:04:44;5.32;;;4.15;;
46505;SDS011;32220;49.808;9.968;2024-03-02T12:07:17;3.60;;;3.35;;
46505;SDS011;32220;49.808;9.968;2024-03-02T12:09:46;3.67;;;3.38;;
46505;SDS011;32220;49.808;9.968;2024-03-02T12:12:14;4.30;;;3.90;;
46505;SDS011;32220;49.808;9.968;2024-03-02T12:14:49;3.10;;;2.90;;
46505;SDS011;32220;49.808;9.968;2024-03-02T12:17:18;2.88;;;2.67;;
46505;SDS011;32220;49.808;9.968;2024-03-02T12:19:45;2.85;;;2.65;;
46505;SDS011;32220;49.808;9.968;2024-03-02T12:22:13;2.78;;;2.58;;
46505;SDS011;32220;49.808;9.968;2024-03-02T12:24:41;2.67;;;2.47;;
46505;SDS011;32220;49.808;9.968;2024-03-02T12:27:12;2.88;;;2.67;;
46505;SDS011;32220;49.808;9.968;2024-03-02T12:29:43;2.90;;;2.70;;
46505;SDS011;32220;49.808;9.968;2024-03-02T12:32:10;3.47;;;3.17;;
46505;SDS011;32220;49.808;9.968;2024-03-02T12:34:38;3.25;;;2.88;;
46505;SDS011;32220;49.808;9.968;2024-03-02T12:37:05;2.97;;;2.78;;
46505;SDS011;32220;49.808;9.968;2024-03-02T12:39:33;3.78;;;3.10;;
46505;SDS011;32220;49.808;9.968;2024-03-02T12:42:02;3.55;;;3.25;;
46505;SDS011;32220;49.808;9.968;2024-03-02T12:44:30;3.35;;;3.10;;
46505;SDS011;32220;49.808;9.968;2024-03-02T12:46:59;2.83;;;2.63;;
46505;SDS011;32220;49.808;9.968;2024-03-02T12:49:26;2.83;;;2.63;;
46505;SDS011;32220;49.808;9.968;2024-03-02T12:51:54;3.58;;;3.28;;
46505;SDS011;32220;49.808;9.968;2024-03-02T12:54:23;3.00;;;2.70;;
46505;SDS011;32220;49.808;9.968;2024-03-02T12:56:52;3.28;;;3.08;;
46505;SDS011;32220;49.808;9.968;2024-03-02T12:59:20;2.60;;;2.40;;
46505;SDS011;32220;49.808;9.968;2024-03-02T13:01:52;2.70;;;2.50;;
46505;SDS011;32220;49.808;9.968;2024-03-02T13:04:25;2.70;;;2.50;;
46505;SDS011;32220;49.808;9.968;2024-03-02T13:06:54;2.78;;;2.40;;
46505;SDS011;32220;49.808;9.968;2024-03-02T13:09:23;2.88;;;2.50;;
46505;SDS011;32220;49.808;9.968;2024-03-02T13:11:51;3.60;;;3.30;;
46505;SDS011;32220;49.808;9.968;2024-03-02T13:14:21;4.10;;;3.17;;
46505;SDS011;32220;49.808;9.968;2024-03-02T13:16:50;2.47;;;2.28;;
46505;SDS011;32220;49.808;9.968;2024-03-02T13:19:18;2.85;;;2.50;;
46505;SDS011;32220;49.808;9.968;2024-03-02T13:21:47;3.15;;;2.95;;
46505;SDS011;32220;49.808;9.968;2024-03-02T13:24:16;3.33;;;3.03;;
46505;SDS011;32220;49.808;9.968;2024-03-02T13:26:43;3.17;;;2.88;;
46505;SDS011;32220;49.808;9.968;2024-03-02T13:29:11;4.60;;;3.47;;
46505;SDS011;32220;49.808;9.968;2024-03-02T13:31:39;3.72;;;3.35;;
46505;SDS011;32220;49.808;9.968;2024-03-02T13:34:06;3.08;;;2.88;;
46505;SDS011;32220;49.808;9.968;2024-03-02T13:36:34;3.92;;;3.63;;
46505;SDS011;32220;49.808;9.968;2024-03-02T13:39:03;3.47;;;3.17;;
46505;SDS011;32220;49.808;9.968;2024-03-02T13:41:31;3.38;;;3.08;;
46505;SDS011;32220;49.808;9.968;2024-03-02T13:43:59;3.58;;;3.28;;
46505;SDS011;32220;49.808;9.968;2024-03-02T13:46:27;3.88;;;3.45;;
46505;SDS011;32220;49.808;9.968;2024-03-02T13:48:55;4.03;;;3.63;;
46505;SDS011;32220;49.808;9.968;2024-03-02T13:51:24;3.63;;;3.33;;
46505;SDS011;32220;49.808;9.968;2024-03-02T13:53:53;3.47;;;3.20;;
46505;SDS011;32220;49.808;9.968;2024-03-02T13:56:22;3.20;;;3.00;;
46505;SDS011;32220;49.808;9.968;2024-03-02T13:58:49;3.00;;;2.78;;
46505;SDS011;32220;49.808;9.968;2024-03-02T14:01:17;3.50;;;3.20;;
46505;SDS011;32220;49.808;9.968;2024-03-02T14:03:45;3.00;;;2.80;;
46505;SDS011;32220;49.808;9.968;2024-03-02T14:06:13;3.47;;;3.20;;
46505;SDS011;32220;49.808;9.968;2024-03-02T14:08:40;2.53;;;2.33;;
46505;SDS011;32220;49.808;9.968;2024-03-02T14:11:10;2.65;;;2.45;;
46505;SDS011;32220;49.808;9.968;2024-03-02T14:13:42;2.80;;;2.60;;
46505;SDS011;32220;49.808;9.968;2024-03-02T14:16:15;2.95;;;2.70;;
46505;SDS011;32220;49.808;9.968;2024-03-02T14:18:43;2.65;;;2.45;;
46505;SDS011;32220;49.808;9.968;2024-03-02T14:21:10;2.60;;;2.40;;
46505;SDS011;32220;49.808;9.968;2024-03-02T14:23:38;2.10;;;1.90;;
46505;SDS011;32220;49.808;9.968;2024-03-02T14:26:06;2.10;;;1.90;;
46505;SDS011;32220;49.808;9.968;2024-03-02T14:28:34;2.05;;;1.85;;
46505;SDS011;32220;49.808;9.968;2024-03-02T14:31:03;1.75;;;1.40;;
46505;SDS011;32220;49.808;9.968;2024-03-02T14:33:30;1.50;;;1.40;;
46505;SDS011;32220;49.808;9.968;2024-03-02T14:35:58;2.87;;;2.03;;
46505;SDS011;32220;49.808;9.968;2024-03-02T14:38:25;2.50;;;1.93;;
46505;SDS011;32220;49.808;9.968;2024-03-02T14:40:53;1.43;;;1.33;;
46505;SDS011;32220;49.808;9.968;2024-03-02T14:43:21;1.03;;;0.90;;
46505;SDS011;32220;49.808;9.968;2024-03-02T14:45:48;1.87;;;1.40;;
46505;SDS011;32220;49.808;9.968;2024-03-02T14:48:18;2.63;;;2.03;;
46505;SDS011;32220;49.808;9.968;2024-03-02T14:50:45;2.93;;;2.50;;
46505;SDS011;32220;49.808;9.968;2024-03-02T14:53:13;4.67;;;1.80;;
46505;SDS011;32220;49.808;9.968;2024-03-02T14:55:40;2.77;;;2.10;;
46505;SDS011;32220;49.808;9.968;2024-03-02T14:58:08;2.50;;;2.00;;
46505;SDS011;32220;49.808;9.968;2024-03-02T15:00:35;2.30;;;2.10;;
46505;SDS011;32220;49.808;9.968;2024-03-02T15:03:03;2.80;;;2.50;;
46505;SDS011;32220;49.808;9.968;2024-03-02T15:05:35;2.33;;;2.07;;
46505;SDS011;32220;49.808;9.968;2024-03-02T15:08:03;2.67;;;2.37;;
46505;SDS011;32220;49.808;9.968;2024-03-02T15:10:31;2.60;;;2.40;;
46505;SDS011;32220;49.808;9.968;2024-03-02T15:12:59;2.07;;;1.87;;
46505;SDS011;32220;49.808;9.968;2024-03-02T15:15:27;2.90;;;2.37;;
46505;SDS011;32220;49.808;9.968;2024-03-02T15:17:54;2.20;;;2.00;;
46505;SDS011;32220;49.808;9.968;2024-03-02T15:20:22;2.47;;;2.27;;
46505;SDS011;32220;49.808;9.968;2024-03-02T15:22:51;2.60;;;2.20;;
46505;SDS011;32220;49.808;9.968;2024-03-02T15:25:19;2.40;;;2.20;;
46505;SDS011;32220;49.808;9.968;2024-03-02T15:27:46;2.73;;;2.47;;
46505;SDS011;32220;49.808;9.968;2024-03-02T15:30:14;3.03;;;2.37;;
46505;SDS011;32220;49.808;9.968;2024-03-02T15:32:42;2.60;;;2.30;;
46505;SDS011;32220;49.808;9.968;2024-03-02T15:35:10;3.60;;;2.43;;
46505;SDS011;32220;49.808;9.968;2024-03-02T15:37:37;2.20;;;2.00;;
46505;SDS011;32220;49.808;9.968;2024-03-02T15:40:08;3.00;;;2.70;;
46505;SDS011;32220;49.808;9.968;2024-03-02T15:42:37;2.80;;;2.50;;
46505;SDS011;32220;49.808;9.968;2024-03-02T15:45:04;2.70;;;2.50;;
46505;SDS011;32220;49.808;9.968;2024-03-02T15:47:33;2.80;;;2.40;;
46505;SDS011;32220;49.808;9.968;2024-03-02T15:50:01;3.57;;;2.70;;
46505;SDS011;32220;49.808;9.968;2024-03-02T15:52:29;4.80;;;2.93;;
46505;SDS011;32220;49.808;9.968;2024-03-02T15:54:57;3.47;;;3.10;;
46505;SDS011;32220;49.808;9.968;2024-03-02T15:57:26;3.83;;;3.23;;
46505;SDS011;32220;49.808;9.968;2024-03-02T15:59:54;4.33;;;3.33;;
46505;SDS011;32220;49.808;9.968;2024-03-02T16:02:21;4.60;;;3.37;;
46505;SDS011;32220;49.808;9.968;2024-03-02T16:04:49;4.03;;;3.63;;
46505;SDS011;32220;49.808;9.968;2024-03-02T16:07:17;5.20;;;4.33;;
46505;SDS011;32220;49.808;9.968;2024-03-02T16:09:45;5.93;;;4.40;;
46505;SDS011;32220;49.808;9.968;2024-03-02T16:12:12;5.07;;;3.30;;
46505;SDS011;32220;49.808;9.968;2024-03-02T16:14:42;5.20;;;4.10;;
46505;SDS011;32220;49.808;9.968;2024-03-02T16:17:10;4.20;;;3.80;;
46505;SDS011;32220;49.808;9.968;2024-03-02T16:19:37;5.27;;;3.80;;
46505;SDS011;32220;49.808;9.968;2024-03-02T16:22:06;4.93;;;3.97;;
46505;SDS011;32220;49.808;9.968;2024-03-02T16:24:36;4.57;;;4.10;;
46505;SDS011;32220;49.808;9.968;2024-03-02T16:27:04;4.80;;;3.87;;
46505;SDS011;32220;49.808;9.968;2024-03-02T16:29:32;4.70;;;3.80;;
46505;SDS011;32220;49.808;9.968;2024-03-02T16:32:01;4.37;;;3.70;;
46505;SDS011;32220;49.808;9.968;2024-03-02T16:34:29;5.87;;;4.43;;
46505;SDS011;32220;49.808;9.968;2024-03-02T16:36:56;5.97;;;4.97;;
46505;SDS011;32220;49.808;9.968;2024-03-02T16:39:24;5.47;;;4.53;;
46505;SDS011;32220;49.808;9.968;2024-03-02T16:41:51;6.20;;;4.73;;
46505;SDS011;32220;49.808;9.968;2024-03-02T16:44:19;6.47;;;5.13;;
46505;SDS011;32220;49.808;9.968;2024-03-02T16:46:46;5.90;;;4.70;;
46505;SDS011;32220;49.808;9.968;2024-03-02T16:49:16;5.93;;;4.83;;
46505;SDS011;32220;49.808;9.968;2024-03-02T16:51:44;7.63;;;5.57;;
46505;SDS011;32220;49.808;9.968;2024-03-02T16:54:12;7.63;;;5.87;;
46505;SDS011;32220;49.808;9.968;2024-03-02T16:56:40;7.73;;;5.37;;
46505;SDS011;32220;49.808;9.968;2024-03-02T16:59:08;6.43;;;5.33;;
46505;SDS011;32220;49.808;9.968;2024-03-02T17:01:36;6.23;;;4.73;;
46505;SDS011;32220;49.808;9.968;2024-03-02T17:04:04;6.30;;;5.23;;
46505;SDS011;32220;49.808;9.968;2024-03-02T17:06:33;9.33;;;6.07;;
46505;SDS011;32220;49.808;9.968;2024-03-02T17:09:01;8.43;;;6.30;;
46505;SDS011;32220;49.808;9.968;2024-03-02T17:11:28;7.77;;;5.37;;
46505;SDS011;32220;49.808;9.968;2024-03-02T17:13:56;6.83;;;5.00;;
46505;SDS011;32220;49.808;9.968;2024-03-02T17:16:24;6.90;;;6.20;;
46505;SDS011;32220;49.808;9.968;2024-03-02T17:18:52;8.33;;;6.10;;
46505;SDS011;32220;49.808;9.968;2024-03-02T17:21:20;10.20;;;6.37;;
46505;SDS011;32220;49.808;9.968;2024-03-02T17:23:49;8.27;;;6.33;;
46505;SDS011;32220;49.808;9.968;2024-03-02T17:26:16;8.07;;;6.40;;
46505;SDS011;32220;49.808;9.968;2024-03-02T17:28:44;8.20;;;5.80;;
46505;SDS011;32220;49.808;9.968;2024-03-02T17:31:11;6.67;;;5.93;;
46505;SDS011;32220;49.808;9.968;2024-03-02T17:33:39;9.30;;;6.17;;
46505;SDS011;32220;49.808;9.968;2024-03-02T17:36:06;7.93;;;6.23;;
46505;SDS011;32220;49.808;9.968;2024-03-02T17:38:34;6.93;;;5.87;;
46505;SDS011;32220;49.808;9.968;2024-03-02T17:41:03;9.73;;;6.53;;
46505;SDS011;32220;49.808;9.968;2024-03-02T17:43:31;9.10;;;6.77;;
46505;SDS011;32220;49.808;9.968;2024-03-02T17:45:58;9.27;;;6.43;;
46505;SDS011;32220;49.808;9.968;2024-03-02T17:48:26;9.07;;;6.50;;
46505;SDS011;32220;49.808;9.968;2024-03-02T17:50:54;8.57;;;6.30;;
46505;SDS011;32220;49.808;9.968;2024-03-02T17:53:21;10.97;;;7.50;;
46505;SDS011;32220;49.808;9.968;2024-03-02T17:55:49;9.97;;;7.47;;
46505;SDS011;32220;49.808;9.968;2024-03-02T17:58:18;7.90;;;6.10;;
46505;SDS011;32220;49.808;9.968;2024-03-02T18:00:45;9.63;;;6.80;;
46505;SDS011;32220;49.808;9.968;2024-03-02T18:03:13;11.53;;;7.00;;
46505;SDS011;32220;49.808;9.968;2024-03-02T18:05:40;10.17;;;7.10;;
46505;SDS011;32220;49.808;9.968;2024-03-02T18:08:08;13.80;;;9.40;;
46505;SDS011;32220;49.808;9.968;2024-03-02T18:10:35;11.20;;;8.33;;
46505;SDS011;32220;49.808;9.968;2024-03-02T18:13:03;10.70;;;7.90;;